Albia, Iowa
Current Conditions -  °F | °C
As of 12:53 PM on Monday 20 Oct 2014 (Local Time) from KOTM Reporting Station
Clear Clear  
Wind Chill: 66°   Ceiling: Unl
Heat Index: 66°   Visibility: 10mi
Dew Point: 46°   Wind: 7mph
Humidity: 48%   Direction: 340°NNW
Pressure: 30"   Gusts: NA
Location:  41.03°N, 92.81°W
Report Text: KOTM 201753Z AUTO 34006KT 10SM CLR 19/08 A3000 RMK AO2 SLP159 T01890078 10189 20078 58006
Loading
Personal Weather Stations






























Interactive Weather Map
Tropical Storm Tracking
New forecast layout! Learn more

10-Day Weather Forecast

Advertisements
Track Severe Weather on mobile